Laayoune, Western Sahara
Current Conditions -  °F | °C
As of 7:00 AM on Saturday 01 Nov 2014 (Local Time) from GMML Reporting Station
Broken Clouds Broken Clouds  
Wind Chill: 66°   Ceiling: 8000
Heat Index: 66°   Visibility: 3mi
Dew Point: 66°   Wind: 3mph
Humidity: 100%   Direction: 310°NW
Pressure: 29.94"   Gusts: NA
Location:  27.15°N, 13.2°W
Report Text: GMML 010700Z 31003KT 5000 FEW006 BKN080 19/19 Q1014 NOSIG
Loading
Personal Weather Stations






























Interactive Weather Map
Tropical Storm Tracking
New forecast layout! Learn more

10-Day Weather Forecast

Advertisements
Track Severe Weather on mobile